Time;durP1;ratioP1;P1;durP2;ratioP2;P2;SDS_P1;SDS_P2;PMS_P1;PMS_P2;Temp;Humidity;BMP_temperature;BMP_pressure;BME280_temperature;BME280_humidity;BME280_pressure;Samples;Min_cycle;Max_cycle;Signal;HPM_P1;HPM_P2
2022/03/14 00:02:11;;;;;;;2.40;2.20;;;11.40;99.90;;;;;;5056724;28;20206;-78
2022/03/14 00:04:38;;;;;;;2.45;2.25;;;11.40;99.90;;;;;;5055523;28;20163;-79
2022/03/14 00:07:04;;;;;;;3.47;1.90;;;11.50;99.90;;;;;;5055804;28;20183;-78
2022/03/14 00:09:30;;;;;;;2.20;2.00;;;11.20;99.90;;;;;;5056106;28;20273;-78
2022/03/14 00:11:57;;;;;;;2.70;2.50;;;11.20;99.90;;;;;;5041009;28;20197;-78
2022/03/14 00:14:25;;;;;;;2.60;2.40;;;11.30;99.90;;;;;;5055321;28;20267;-78
2022/03/14 00:16:56;;;;;;;2.45;2.15;;;11.30;99.90;;;;;;5054307;28;20183;-78
2022/03/14 00:19:22;;;;;;;2.67;2.47;;;11.20;99.90;;;;;;5056041;28;20171;-78
2022/03/14 00:21:49;;;;;;;2.65;2.45;;;11.30;99.90;;;;;;5058347;28;20225;-77
2022/03/14 00:24:15;;;;;;;2.42;2.22;;;11.30;99.90;;;;;;5039021;28;20190;-78
2022/03/14 00:26:41;;;;;;;2.70;2.50;;;11.20;99.90;;;;;;5034861;28;20199;-81
2022/03/14 00:29:08;;;;;;;2.33;2.13;;;11.00;99.90;;;;;;5052764;28;20254;-84
2022/03/14 00:31:34;;;;;;;2.65;2.33;;;10.90;99.90;;;;;;5052322;28;20190;-77
2022/03/14 00:34:00;;;;;;;2.47;2.22;;;11.10;99.90;;;;;;5052764;28;20559;-81
2022/03/14 00:36:27;;;;;;;2.45;2.25;;;11.10;99.90;;;;;;5053188;28;20191;-80
2022/03/14 00:38:54;;;;;;;2.78;2.58;;;11.10;99.90;;;;;;5053485;28;20163;-80
2022/03/14 00:41:20;;;;;;;2.63;2.42;;;11.10;99.90;;;;;;5052544;28;20236;-82
2022/03/14 00:43:46;;;;;;;2.40;2.20;;;11.30;99.90;;;;;;5052865;28;20685;-83
2022/03/14 00:46:16;;;;;;;3.97;2.10;;;11.30;99.90;;;;;;5052960;28;20240;-79
2022/03/14 00:48:43;;;;;;;2.83;2.58;;;11.20;99.90;;;;;;5056087;28;20167;-78
2022/03/14 00:51:08;;;;;;;2.40;2.20;;;11.10;99.90;;;;;;5057571;28;20201;-78
2022/03/14 00:53:35;;;;;;;2.13;1.92;;;11.20;99.90;;;;;;5057243;28;20180;-78
2022/03/14 00:56:01;;;;;;;3.08;2.10;;;11.00;99.90;;;;;;5059499;28;20205;-77
2022/03/14 00:58:29;;;;;;;2.40;2.20;;;11.10;99.90;;;;;;5061060;28;20159;-81
2022/03/14 01:00:55;;;;;;;2.50;2.30;;;11.10;99.90;;;;;;5058456;28;20199;-77
2022/03/14 01:03:21;;;;;;;2.72;2.53;;;11.00;99.90;;;;;;5062461;28;20162;-78
2022/03/14 01:05:46;;;;;;;2.25;2.05;;;11.10;99.90;;;;;;5065728;28;20190;-79
2022/03/14 01:08:12;;;;;;;2.70;2.50;;;11.00;99.90;;;;;;5043616;28;20167;-80
2022/03/14 01:10:38;;;;;;;2.40;2.20;;;10.90;99.90;;;;;;5060574;28;20723;-80
2022/03/14 01:13:04;;;;;;;2.78;2.47;;;11.00;99.90;;;;;;5042300;28;20266;-77
2022/03/14 01:15:32;;;;;;;2.80;2.60;;;11.00;99.90;;;;;;5059693;28;20187;-84
2022/03/14 01:18:00;;;;;;;2.47;2.28;;;10.90;99.90;;;;;;5059360;28;20159;-78
2022/03/14 01:20:26;;;;;;;3.30;2.88;;;10.70;99.90;;;;;;5039670;28;20273;-79
2022/03/14 01:22:55;;;;;;;3.00;2.70;;;10.70;99.90;;;;;;5037833;28;20171;-77
2022/03/14 01:25:23;;;;;;;3.85;2.65;;;10.70;99.90;;;;;;5056542;28;20167;-76
2022/03/14 01:27:50;;;;;;;4.10;2.88;;;10.70;99.90;;;;;;5056470;28;20177;-77
2022/03/14 01:30:20;;;;;;;3.10;2.85;;;10.60;99.90;;;;;;5039346;28;20167;-77
2022/03/14 01:32:46;;;;;;;3.22;2.92;;;10.70;99.90;;;;;;5037979;28;20186;-78
2022/03/14 01:35:12;;;;;;;3.45;3.15;;;10.80;99.90;;;;;;5056556;28;20175;-76
2022/03/14 01:37:39;;;;;;;3.60;3.30;;;10.80;99.90;;;;;;5056680;28;20186;-78
2022/03/14 01:40:08;;;;;;;4.60;3.10;;;10.90;99.90;;;;;;5055941;28;20206;-78
2022/03/14 01:42:34;;;;;;;6.55;3.88;;;10.70;99.90;;;;;;5055752;28;20179;-79
2022/03/14 01:45:00;;;;;;;3.67;3.38;;;10.80;99.90;;;;;;5055971;28;20164;-78
2022/03/14 01:47:28;;;;;;;4.68;3.22;;;10.70;99.90;;;;;;5055892;28;20566;-78
2022/03/14 01:49:53;;;;;;;4.72;4.22;;;10.70;99.90;;;;;;5056224;28;20656;-79
2022/03/14 01:52:21;;;;;;;5.05;4.38;;;10.80;99.90;;;;;;5056286;28;20193;-79
2022/03/14 01:54:48;;;;;;;5.85;3.92;;;10.90;99.90;;;;;;5056038;28;20169;-79
2022/03/14 01:57:14;;;;;;;5.15;4.32;;;10.90;99.90;;;;;;5056248;28;20189;-79
2022/03/14 01:59:40;;;;;;;4.57;4.18;;;10.80;99.90;;;;;;5057048;28;20635;-77
2022/03/14 02:02:07;;;;;;;5.68;4.53;;;10.70;99.90;;;;;;5057023;28;20207;-80
2022/03/14 02:04:33;;;;;;;8.65;4.88;;;10.70;99.90;;;;;;5041887;28;20175;-80
2022/03/14 02:07:04;;;;;;;5.05;4.65;;;10.80;99.90;;;;;;5058970;28;20191;-78
2022/03/14 02:09:30;;;;;;;5.78;5.18;;;10.70;99.90;;;;;;5057305;28;20236;-77
2022/03/14 02:11:55;;;;;;;5.38;4.95;;;10.70;99.90;;;;;;5057387;28;20174;-77
2022/03/14 02:14:25;;;;;;;7.10;6.50;;;10.70;99.90;;;;;;5056046;28;20176;-79
2022/03/14 02:16:52;;;;;;;6.80;5.88;;;10.60;99.90;;;;;;5055430;28;20195;-78
2022/03/14 02:19:18;;;;;;;6.68;5.78;;;10.70;99.90;;;;;;5055506;28;20737;-81
2022/03/14 02:21:44;;;;;;;6.97;6.20;;;10.90;99.90;;;;;;5037470;28;20203;-79
2022/03/14 02:24:10;;;;;;;11.32;6.55;;;10.80;99.90;;;;;;5055631;28;20239;-80
2022/03/14 02:26:40;;;;;;;6.57;5.97;;;10.60;99.90;;;;;;5055564;28;20265;-79
2022/03/14 02:29:09;;;;;;;7.70;7.03;;;10.80;99.90;;;;;;5055432;28;20179;-78
2022/03/14 02:31:38;;;;;;;7.30;6.63;;;10.70;99.90;;;;;;5055429;28;20167;-79
2022/03/14 02:34:05;;;;;;;8.52;7.68;;;10.80;99.90;;;;;;5055953;28;20151;-82
2022/03/14 02:36:31;;;;;;;9.70;7.72;;;10.80;99.90;;;;;;5063993;28;20194;-77
2022/03/14 02:38:57;;;;;;;10.40;7.20;;;10.90;99.90;;;;;;5065384;28;20190;-77
2022/03/14 02:41:23;;;;;;;9.93;8.07;;;11.00;99.90;;;;;;5065306;28;20202;-77
2022/03/14 02:43:48;;;;;;;8.35;7.55;;;11.00;99.90;;;;;;5065190;28;20180;-77
2022/03/14 02:46:15;;;;;;;9.48;8.10;;;11.00;99.90;;;;;;5064864;28;20187;-78
2022/03/14 02:48:41;;;;;;;8.55;7.82;;;10.90;99.90;;;;;;5063757;28;20242;-78
2022/03/14 02:51:06;;;;;;;9.68;8.77;;;10.90;99.90;;;;;;5065093;28;20196;-78
2022/03/14 02:53:32;;;;;;;8.80;8.10;;;10.90;99.90;;;;;;5064756;28;20172;-78
2022/03/14 02:55:58;;;;;;;11.55;7.15;;;10.90;99.90;;;;;;5064693;28;20183;-78
2022/03/14 02:58:25;;;;;;;15.00;8.63;;;11.10;99.90;;;;;;5065581;28;20223;-78
2022/03/14 03:00:52;;;;;;;10.27;9.13;;;11.00;99.90;;;;;;5078710;28;20206;-78
2022/03/14 03:03:17;;;;;;;13.25;9.27;;;11.10;99.90;;;;;;5078264;28;20186;-78
2022/03/14 03:05:45;;;;;;;11.43;10.43;;;11.00;99.90;;;;;;5078035;28;20187;-78
2022/03/14 03:08:11;;;;;;;9.60;8.52;;;10.90;99.90;;;;;;5060825;28;20163;-78
2022/03/14 03:10:37;;;;;;;9.45;8.40;;;10.90;99.90;;;;;;5077621;28;20190;-77
2022/03/14 03:13:03;;;;;;;14.60;9.15;;;10.90;99.90;;;;;;5070016;28;20199;-77
2022/03/14 03:15:30;;;;;;;12.52;8.88;;;11.00;99.90;;;;;;5073718;28;20167;-82
2022/03/14 03:17:55;;;;;;;16.20;10.13;;;11.00;99.90;;;;;;5059677;28;20175;-85
2022/03/14 03:20:22;;;;;;;11.63;9.80;;;10.90;99.90;;;;;;5070492;28;20170;-87
2022/03/14 03:22:48;;;;;;;18.50;9.52;;;10.80;99.90;;;;;;5054773;28;20189;-86
2022/03/14 03:25:14;;;;;;;17.50;10.05;;;10.90;99.90;;;;;;5060886;28;20588;-80
2022/03/14 03:27:40;;;;;;;12.23;9.05;;;11.00;99.90;;;;;;5059371;28;20171;-83
2022/03/14 03:30:06;;;;;;;14.75;9.85;;;10.90;99.90;;;;;;5056767;28;20217;-77
2022/03/14 03:32:32;;;;;;;10.98;9.98;;;10.90;99.90;;;;;;5047203;28;20163;-76
2022/03/14 03:34:58;;;;;;;13.27;9.73;;;10.80;99.90;;;;;;5069865;28;20206;-82
2022/03/14 03:37:23;;;;;;;9.63;8.73;;;10.70;99.90;;;;;;5069476;28;20246;-78
2022/03/14 03:39:49;;;;;;;11.18;8.35;;;10.70;99.90;;;;;;5055050;28;20197;-77
2022/03/14 03:42:14;;;;;;;9.68;8.70;;;10.70;99.90;;;;;;5076207;28;20222;-76
2022/03/14 03:44:40;;;;;;;10.45;9.10;;;10.60;99.90;;;;;;5078206;28;20163;-76
2022/03/14 03:47:06;;;;;;;11.75;9.50;;;10.60;99.90;;;;;;5063629;28;20213;-78
2022/03/14 03:49:32;;;;;;;13.05;9.25;;;10.70;99.90;;;;;;5059433;28;20170;-78
2022/03/14 03:51:58;;;;;;;9.43;8.52;;;10.80;99.90;;;;;;5057397;28;20217;-77
2022/03/14 03:54:26;;;;;;;13.00;8.32;;;10.80;99.90;;;;;;5058912;28;20167;-77
2022/03/14 03:56:51;;;;;;;9.25;8.35;;;10.90;99.90;;;;;;5061895;28;20201;-76
2022/03/14 03:59:17;;;;;;;11.70;8.77;;;10.90;99.90;;;;;;5043133;28;20171;-78
2022/03/14 04:01:46;;;;;;;12.43;9.40;;;10.80;99.90;;;;;;5043335;28;20223;-77
2022/03/14 04:04:12;;;;;;;16.13;9.07;;;10.90;99.90;;;;;;5042749;28;20251;-77
2022/03/14 04:06:39;;;;;;;10.40;9.30;;;10.70;99.90;;;;;;5060781;28;20210;-79
2022/03/14 04:09:07;;;;;;;9.35;8.25;;;10.60;99.90;;;;;;5058300;28;20255;-80
2022/03/14 04:11:35;;;;;;;14.63;9.23;;;10.70;99.90;;;;;;5056655;28;20170;-78
2022/03/14 04:14:01;;;;;;;9.63;8.70;;;10.80;99.90;;;;;;5038856;28;20167;-78
2022/03/14 04:16:28;;;;;;;10.13;7.65;;;10.60;99.90;;;;;;5057866;28;20191;-79
2022/03/14 04:18:55;;;;;;;7.80;7.05;;;10.70;99.90;;;;;;5058471;28;20159;-79
2022/03/14 04:21:22;;;;;;;8.45;7.53;;;10.90;99.90;;;;;;5056142;28;20722;-78
2022/03/14 04:23:48;;;;;;;8.23;7.50;;;11.00;99.90;;;;;;5053165;28;20155;-79
2022/03/14 04:26:14;;;;;;;8.13;7.40;;;11.10;99.90;;;;;;5053775;28;20191;-78
2022/03/14 04:28:43;;;;;;;8.93;7.50;;;10.80;99.90;;;;;;5053539;28;20187;-78
2022/03/14 04:31:09;;;;;;;13.85;7.47;;;10.80;99.90;;;;;;5052907;28;20214;-79
2022/03/14 04:33:36;;;;;;;12.07;8.10;;;10.80;99.90;;;;;;5052241;28;20261;-78
2022/03/14 04:36:02;;;;;;;11.18;8.23;;;10.90;99.90;;;;;;5052088;28;20187;-76
2022/03/14 04:38:29;;;;;;;10.38;7.20;;;11.00;99.90;;;;;;5058148;28;20250;-79
2022/03/14 04:40:56;;;;;;;17.63;8.77;;;11.10;99.90;;;;;;5057187;28;20207;-78
2022/03/14 04:43:22;;;;;;;13.43;6.75;;;11.00;99.90;;;;;;5038576;28;20551;-77
2022/03/14 04:45:48;;;;;;;13.00;8.18;;;10.90;99.90;;;;;;5056891;28;20210;-76
2022/03/14 04:48:15;;;;;;;12.00;7.60;;;11.00;99.90;;;;;;5059928;28;20258;-77
2022/03/14 04:50:42;;;;;;;11.10;7.90;;;10.70;99.90;;;;;;5054458;28;20208;-79
2022/03/14 04:53:08;;;;;;;9.80;7.88;;;10.50;99.90;;;;;;5052966;28;20181;-80
2022/03/14 04:55:35;;;;;;;10.43;7.65;;;10.50;99.90;;;;;;5053621;28;20223;-78
2022/03/14 04:58:01;;;;;;;13.85;7.70;;;10.60;99.90;;;;;;5053663;28;20175;-80
2022/03/14 05:00:30;;;;;;;12.40;7.65;;;10.60;99.90;;;;;;5053730;28;20609;-78
2022/03/14 05:03:03;;;;;;;12.75;7.57;;;10.40;99.90;;;;;;5036045;28;20175;-76
2022/03/14 05:05:30;;;;;;;10.75;8.02;;;10.50;99.90;;;;;;5053692;28;20279;-78
2022/03/14 05:07:56;;;;;;;8.98;8.02;;;10.60;99.90;;;;;;5054346;28;20175;-77
2022/03/14 05:10:23;;;;;;;13.93;7.25;;;10.70;99.90;;;;;;5054668;28;20201;-79
2022/03/14 05:12:50;;;;;;;9.55;7.72;;;10.70;99.90;;;;;;5053665;28;20636;-79
2022/03/14 05:15:16;;;;;;;8.90;7.88;;;10.60;99.90;;;;;;5051651;28;20242;-78
2022/03/14 05:20:09;;;;;;;8.60;7.63;;;10.70;99.90;;;;;;5055474;28;20242;-77
2022/03/14 05:22:43;;;;;;;8.07;7.15;;;10.60;99.90;;;;;;5060434;28;20728;-77
2022/03/14 05:25:10;;;;;;;9.85;8.20;;;10.70;99.90;;;;;;5053507;28;20170;-83
2022/03/14 05:27:37;;;;;;;11.07;8.95;;;10.70;99.90;;;;;;5051994;28;20167;-77
2022/03/14 05:30:03;;;;;;;12.85;7.63;;;10.50;99.90;;;;;;5053913;28;20171;-81
2022/03/14 05:32:28;;;;;;;12.00;8.18;;;10.50;99.90;;;;;;5052350;28;20171;-78
2022/03/14 05:34:58;;;;;;;22.38;8.50;;;10.70;99.90;;;;;;5055608;28;20174;-79
2022/03/14 05:37:25;;;;;;;14.77;7.80;;;10.80;99.90;;;;;;5031754;28;20237;-79
2022/03/14 05:39:51;;;;;;;13.05;8.68;;;10.80;99.90;;;;;;5036423;28;20182;-79
2022/03/14 05:42:16;;;;;;;9.57;7.88;;;10.80;99.90;;;;;;5052477;28;20203;-84
2022/03/14 05:44:43;;;;;;;8.38;7.57;;;10.70;99.90;;;;;;5061413;28;20171;-82
2022/03/14 05:47:11;;;;;;;12.57;8.00;;;10.70;99.90;;;;;;5065960;28;20262;-80
2022/03/14 05:49:36;;;;;;;9.85;7.80;;;10.80;99.90;;;;;;5026795;28;20163;-81
2022/03/14 05:52:02;;;;;;;9.00;7.72;;;10.80;99.90;;;;;;5059571;28;20179;-78
2022/03/14 05:54:28;;;;;;;13.13;8.32;;;11.00;99.90;;;;;;5055541;28;20531;-78
2022/03/14 05:56:54;;;;;;;17.38;8.30;;;10.90;99.90;;;;;;5037544;28;20202;-80
2022/03/14 05:59:21;;;;;;;9.02;7.20;;;10.80;99.90;;;;;;5057944;28;20630;-79
2022/03/14 06:01:48;;;;;;;13.73;7.15;;;10.70;99.90;;;;;;5056115;28;20203;-78
2022/03/14 06:04:13;;;;;;;13.77;7.82;;;10.70;99.90;;;;;;5055168;28;20155;-81
2022/03/14 06:06:39;;;;;;;8.43;7.63;;;10.90;99.90;;;;;;5054996;28;20194;-80
2022/03/14 06:09:04;;;;;;;11.02;7.70;;;10.90;99.90;;;;;;5055257;28;20182;-79
2022/03/14 06:11:30;;;;;;;15.93;8.35;;;10.90;99.90;;;;;;5055417;28;20635;-77
2022/03/14 06:13:56;;;;;;;10.73;7.63;;;10.80;99.90;;;;;;5054811;28;20258;-79
2022/03/14 06:16:22;;;;;;;13.10;8.32;;;10.70;99.90;;;;;;5054807;28;20673;-77
2022/03/14 06:18:47;;;;;;;8.00;7.18;;;10.60;99.90;;;;;;5054622;28;20178;-76
2022/03/14 06:21:14;;;;;;;10.35;7.78;;;10.80;99.90;;;;;;5056615;28;20215;-78
2022/03/14 06:23:39;;;;;;;8.13;7.07;;;10.80;99.90;;;;;;5056987;28;20678;-81
2022/03/14 06:26:05;;;;;;;13.82;7.95;;;10.80;99.90;;;;;;5055194;28;20187;-78
2022/03/14 06:28:31;;;;;;;17.42;7.43;;;10.80;99.90;;;;;;5054795;28;20194;-78
2022/03/14 06:30:56;;;;;;;9.68;7.18;;;10.80;99.90;;;;;;5054480;28;20221;-78
2022/03/14 06:33:22;;;;;;;19.58;8.55;;;10.50;99.90;;;;;;5054461;28;20168;-77
2022/03/14 06:35:48;;;;;;;9.95;7.53;;;10.60;99.90;;;;;;5054724;28;20189;-78
2022/03/14 06:38:13;;;;;;;12.80;7.07;;;10.70;99.90;;;;;;5055072;28;20160;-79
2022/03/14 06:40:41;;;;;;;9.63;6.60;;;10.80;99.90;;;;;;5054507;28;20701;-78
2022/03/14 06:43:07;;;;;;;13.05;6.90;;;10.70;99.90;;;;;;5056741;28;20168;-79
2022/03/14 06:45:33;;;;;;;8.50;7.03;;;10.80;99.90;;;;;;5054308;28;20184;-78
2022/03/14 06:47:59;;;;;;;9.63;6.35;;;10.90;99.90;;;;;;5054100;28;20579;-78
2022/03/14 06:50:25;;;;;;;16.55;7.65;;;10.90;99.90;;;;;;5055155;28;20555;-79
2022/03/14 06:52:51;;;;;;;8.40;6.43;;;10.90;99.90;;;;;;5054258;28;20182;-85
2022/03/14 06:55:16;;;;;;;8.80;6.30;;;10.90;99.90;;;;;;5054816;28;20221;-89
2022/03/14 06:57:42;;;;;;;8.25;5.90;;;10.90;99.90;;;;;;5055308;28;20171;-82
2022/03/14 07:00:08;;;;;;;12.77;6.20;;;10.90;99.90;;;;;;5054412;28;20240;-81
2022/03/14 07:02:37;;;;;;;14.20;5.38;;;10.60;99.90;;;;;;5036345;28;20226;-80
2022/03/14 07:05:03;;;;;;;11.80;5.72;;;10.60;99.90;;;;;;5036615;28;20171;-79
2022/03/14 07:07:29;;;;;;;7.18;5.80;;;10.70;99.90;;;;;;5054070;28;20175;-79
2022/03/14 07:09:55;;;;;;;6.75;5.00;;;10.70;99.90;;;;;;5054029;28;20305;-78
2022/03/14 07:12:20;;;;;;;11.68;5.43;;;10.80;99.90;;;;;;5054803;28;20167;-80
2022/03/14 07:14:46;;;;;;;8.43;5.63;;;10.90;99.90;;;;;;5054663;28;20171;-79
2022/03/14 07:17:11;;;;;;;20.55;6.28;;;10.90;99.90;;;;;;5054361;28;20187;-80
2022/03/14 07:19:42;;;;;;;11.85;5.90;;;11.10;99.90;;;;;;5054187;28;20167;-78
2022/03/14 07:22:08;;;;;;;10.18;5.35;;;11.30;99.90;;;;;;5053737;28;20210;-82
2022/03/14 07:24:34;;;;;;;8.52;5.68;;;11.10;99.90;;;;;;5065251;28;20182;-79
2022/03/14 07:27:00;;;;;;;10.20;5.93;;;11.20;99.90;;;;;;5058092;28;20258;-80
2022/03/14 07:29:26;;;;;;;7.78;5.60;;;11.20;99.90;;;;;;5054320;28;20163;-80
2022/03/14 07:31:52;;;;;;;5.78;5.15;;;11.10;99.90;;;;;;5052990;28;20163;-83
2022/03/14 07:34:18;;;;;;;11.70;6.43;;;11.10;99.90;;;;;;5053919;28;20171;-79
2022/03/14 07:36:44;;;;;;;15.43;5.93;;;11.20;99.90;;;;;;5053527;28;20709;-87
2022/03/14 07:39:10;;;;;;;23.05;6.75;;;11.10;99.90;;;;;;5053936;28;20171;-81
2022/03/14 07:41:36;;;;;;;8.90;6.25;;;11.20;99.90;;;;;;5054772;28;20213;-79
2022/03/14 07:44:03;;;;;;;9.32;5.88;;;11.20;99.90;;;;;;5033173;28;20640;-88
2022/03/14 07:46:29;;;;;;;13.77;5.75;;;11.40;99.90;;;;;;5034629;28;20207;-88
2022/03/14 07:48:55;;;;;;;7.07;4.90;;;11.40;99.90;;;;;;5034719;28;20183;-81
2022/03/14 07:51:21;;;;;;;10.40;4.82;;;11.20;99.90;;;;;;5034499;28;20182;-80
2022/03/14 07:53:46;;;;;;;10.60;4.85;;;11.30;99.90;;;;;;5035124;28;20199;-93
2022/03/14 07:56:13;;;;;;;8.82;5.28;;;11.40;99.90;;;;;;5055127;28;20281;-95
2022/03/14 07:58:44;;;;;;;16.95;4.63;;;11.50;99.90;;;;;;5055402;28;20189;-94
2022/03/14 08:01:10;;;;;;;10.90;5.05;;;11.50;99.90;;;;;;5053652;28;20203;-84
2022/03/14 08:03:36;;;;;;;5.65;4.10;;;11.60;99.90;;;;;;5054748;28;20175;-84
2022/03/14 08:06:02;;;;;;;10.35;4.03;;;11.60;99.90;;;;;;5053828;28;20213;-88
2022/03/14 08:08:28;;;;;;;20.85;5.68;;;11.50;99.90;;;;;;5054949;28;20226;-78
2022/03/14 08:10:54;;;;;;;14.15;5.10;;;11.60;99.90;;;;;;5056517;28;20190;-79
2022/03/14 08:13:20;;;;;;;16.63;4.28;;;11.50;99.90;;;;;;5068799;28;20705;-81
2022/03/14 08:15:48;;;;;;;11.93;4.70;;;11.70;99.90;;;;;;5069040;28;20197;-82
2022/03/14 08:18:14;;;;;;;8.48;3.55;;;11.60;99.90;;;;;;5069939;28;20198;-78
2022/03/14 08:20:40;;;;;;;11.88;4.47;;;11.80;99.90;;;;;;5047953;28;20195;-81
2022/03/14 08:23:06;;;;;;;7.30;3.40;;;11.80;99.90;;;;;;5036471;28;20541;-81
2022/03/14 08:25:36;;;;;;;14.90;3.80;;;11.80;99.90;;;;;;5038361;28;20187;-81
2022/03/14 08:28:03;;;;;;;14.05;3.92;;;11.80;99.90;;;;;;5036401;28;20580;-85
2022/03/14 08:30:28;;;;;;;6.90;3.58;;;11.70;99.90;;;;;;5035659;28;20257;-81
2022/03/14 08:32:56;;;;;;;6.90;4.65;;;11.80;99.90;;;;;;5035356;28;20736;-83
2022/03/14 08:35:22;;;;;;;9.70;3.03;;;11.90;99.90;;;;;;5035564;28;20178;-86
2022/03/14 08:37:53;;;;;;;8.30;3.13;;;12.00;99.90;;;;;;5036300;28;20175;-84
2022/03/14 08:40:21;;;;;;;8.75;3.88;;;12.10;99.90;;;;;;5036123;28;20163;-84
2022/03/14 08:42:58;;;;;;;7.57;3.60;;;12.20;99.90;;;;;;5059271;28;20179;-85
2022/03/14 08:45:25;;;;;;;14.15;3.78;;;12.30;99.90;;;;;;5040909;28;20210;-85
2022/03/14 08:47:52;;;;;;;6.53;3.78;;;12.10;99.90;;;;;;5052335;28;20171;-86
2022/03/14 08:50:18;;;;;;;8.82;3.88;;;12.20;99.90;;;;;;5056251;28;20167;-82
2022/03/14 08:52:45;;;;;;;6.78;3.80;;;12.20;99.90;;;;;;5039020;28;20236;-81
2022/03/14 08:55:11;;;;;;;10.75;3.08;;;12.00;99.90;;;;;;5051691;28;20654;-87
2022/03/14 08:57:38;;;;;;;7.72;2.75;;;12.00;99.90;;;;;;5052787;28;20179;-82
2022/03/14 09:00:05;;;;;;;22.25;3.70;;;11.90;99.90;;;;;;5052705;28;20166;-83
2022/03/14 09:02:30;;;;;;;10.07;3.35;;;12.10;99.90;;;;;;5034388;28;20573;-84
2022/03/14 09:04:56;;;;;;;12.18;2.97;;;12.20;99.90;;;;;;5034044;28;20179;-83
2022/03/14 09:07:27;;;;;;;11.82;2.67;;;12.30;99.90;;;;;;5034791;28;20678;-82
2022/03/14 09:09:53;;;;;;;13.93;2.92;;;12.30;99.90;;;;;;5033329;28;20194;-82
2022/03/14 09:12:19;;;;;;;9.95;3.95;;;12.20;99.90;;;;;;5052520;28;20159;-81
2022/03/14 09:14:46;;;;;;;13.07;3.22;;;12.30;99.90;;;;;;5033954;28;20177;-83
2022/03/14 09:17:12;;;;;;;7.97;3.20;;;12.30;99.90;;;;;;5035118;28;20252;-82
2022/03/14 09:19:38;;;;;;;30.67;4.55;;;12.30;99.90;;;;;;5056502;28;20176;-87
2022/03/14 09:22:05;;;;;;;14.18;3.20;;;12.40;99.90;;;;;;5056175;28;20207;-83
2022/03/14 09:24:30;;;;;;;8.55;4.60;;;12.50;99.90;;;;;;5037761;28;20170;-86
2022/03/14 09:26:59;;;;;;;4.55;2.92;;;12.50;99.90;;;;;;5038405;28;20183;-84
2022/03/14 09:29:25;;;;;;;15.30;3.28;;;12.30;99.90;;;;;;5057956;28;20206;-87
2022/03/14 09:31:51;;;;;;;8.90;3.08;;;12.20;99.90;;;;;;5056524;28;20252;-80
2022/03/14 09:34:16;;;;;;;8.57;2.85;;;12.40;99.90;;;;;;5037607;28;20246;-82
2022/03/14 09:36:43;;;;;;;10.45;3.08;;;12.50;99.90;;;;;;5037204;28;20191;-81
2022/03/14 09:39:13;;;;;;;11.43;3.00;;;12.50;99.90;;;;;;5054005;28;20640;-81
2022/03/14 09:41:41;;;;;;;16.17;2.78;;;12.60;99.90;;;;;;5055474;28;20202;-81
2022/03/14 09:44:09;;;;;;;8.95;3.42;;;12.70;99.90;;;;;;5057131;28;20194;-81
2022/03/14 09:46:38;;;;;;;14.63;2.72;;;12.40;99.90;;;;;;5037259;28;20201;-80
2022/03/14 09:49:09;;;;;;;14.25;3.13;;;12.10;99.90;;;;;;5038255;28;20171;-82
2022/03/14 09:51:39;;;;;;;12.52;3.08;;;12.20;99.90;;;;;;5056172;28;20255;-82
2022/03/14 09:54:07;;;;;;;5.70;2.55;;;12.50;99.90;;;;;;5037197;28;20163;-81
2022/03/14 09:56:33;;;;;;;13.98;3.53;;;12.60;99.90;;;;;;5055811;28;20205;-82
2022/03/14 09:59:00;;;;;;;8.68;3.35;;;12.70;99.90;;;;;;5037835;28;20171;-82
2022/03/14 10:01:27;;;;;;;9.57;2.63;;;12.70;99.90;;;;;;5055485;28;20731;-81
2022/03/14 10:03:54;;;;;;;12.40;2.80;;;12.50;99.90;;;;;;5037323;28;20163;-81
2022/03/14 10:06:20;;;;;;;13.55;3.53;;;12.50;99.90;;;;;;5054200;28;20199;-81
2022/03/14 10:08:46;;;;;;;16.38;3.03;;;12.60;99.90;;;;;;5037358;28;20591;-82
2022/03/14 10:11:12;;;;;;;7.90;2.55;;;12.70;99.90;;;;;;5055228;28;20171;-82
2022/03/14 10:13:38;;;;;;;7.18;3.25;;;12.70;99.90;;;;;;5036949;28;20175;-82
2022/03/14 10:16:05;;;;;;;8.00;2.97;;;12.50;99.90;;;;;;5055765;28;20647;-81
2022/03/14 10:18:37;;;;;;;21.33;3.65;;;12.50;99.90;;;;;;5055617;28;20262;-81
2022/03/14 10:21:10;;;;;;;17.92;3.42;;;12.30;99.90;;;;;;5042198;28;20222;-82
2022/03/14 10:23:43;;;;;;;7.78;3.13;;;12.40;99.90;;;;;;5039533;28;20171;-82
2022/03/14 10:26:16;;;;;;;18.00;3.83;;;12.50;99.90;;;;;;5064275;28;20171;-83
2022/03/14 10:28:42;;;;;;;11.77;3.42;;;12.40;99.90;;;;;;5055670;28;20167;-82
2022/03/14 10:31:08;;;;;;;14.43;3.67;;;12.40;99.90;;;;;;5038374;28;20224;-84
2022/03/14 10:33:34;;;;;;;16.35;4.50;;;12.30;99.90;;;;;;5056201;28;20175;-84
2022/03/14 10:36:00;;;;;;;16.42;5.30;;;12.50;99.90;;;;;;5040254;28;20519;-82
2022/03/14 10:38:27;;;;;;;8.85;4.68;;;12.50;99.90;;;;;;5038475;28;20174;-86
2022/03/14 10:40:56;;;;;;;18.98;5.78;;;12.80;99.90;;;;;;5054235;28;20562;-82
2022/03/14 10:43:35;;;;;;;12.52;4.15;;;13.00;99.90;;;;;;5038061;28;20702;-85
2022/03/14 10:46:04;;;;;;;14.23;4.10;;;13.00;99.90;;;;;;5054572;28;20655;-82
2022/03/14 10:48:43;;;;;;;12.52;4.43;;;13.10;99.90;;;;;;5038553;28;20580;-82
2022/03/14 10:51:12;;;;;;;8.65;4.45;;;13.20;99.90;;;;;;5037041;28;20170;-83
2022/03/14 10:53:43;;;;;;;10.02;3.85;;;13.00;99.90;;;;;;5037674;28;20186;-86
2022/03/14 10:56:10;;;;;;;17.55;4.10;;;13.10;99.90;;;;;;5055101;28;20191;-86
2022/03/14 10:58:36;;;;;;;14.20;3.65;;;13.30;99.90;;;;;;5038466;28;20194;-81
2022/03/14 11:01:12;;;;;;;7.82;3.55;;;13.40;99.90;;;;;;5055104;28;20202;-81
2022/03/14 11:03:59;;;;;;;18.27;4.53;;;13.60;99.90;;;;;;5040578;28;20159;-83
2022/03/14 11:06:28;;;;;;;7.07;3.67;;;13.90;99.90;;;;;;5055010;28;20194;-81
2022/03/14 11:08:54;;;;;;;10.43;2.97;;;13.80;99.90;;;;;;5041242;28;20244;-83
2022/03/14 11:11:24;;;;;;;11.73;4.03;;;13.60;99.90;;;;;;5056933;28;20248;-85
2022/03/14 11:14:01;;;;;;;9.18;3.22;;;13.40;99.90;;;;;;5057581;28;20221;-81
2022/03/14 11:16:34;;;;;;;8.88;4.03;;;13.50;99.90;;;;;;5055354;28;20207;-83
2022/03/14 11:19:01;;;;;;;11.57;4.05;;;13.60;99.90;;;;;;5056043;28;20164;-83
2022/03/14 11:21:32;;;;;;;9.80;3.53;;;13.70;99.90;;;;;;5053939;28;20540;-81
2022/03/14 11:24:01;;;;;;;7.65;3.50;;;13.80;99.90;;;;;;5070751;28;20173;-82
2022/03/14 11:26:27;;;;;;;14.80;3.90;;;13.90;99.90;;;;;;5053128;28;20202;-81
2022/03/14 11:28:55;;;;;;;15.20;4.28;;;13.80;99.90;;;;;;5045558;28;20155;-82
2022/03/14 11:31:22;;;;;;;14.50;3.83;;;14.10;99.90;;;;;;5062648;28;20170;-83
2022/03/14 11:33:49;;;;;;;12.43;3.80;;;14.20;99.90;;;;;;5039444;28;20171;-81
2022/03/14 11:36:19;;;;;;;17.20;4.78;;;14.20;99.90;;;;;;5053146;28;20202;-80
2022/03/14 11:38:58;;;;;;;15.73;5.18;;;14.50;99.90;;;;;;5043598;28;20182;-82
2022/03/14 11:41:25;;;;;;;9.40;4.13;;;14.80;99.90;;;;;;5040093;28;20547;-81
2022/03/14 11:43:51;;;;;;;15.55;4.40;;;14.60;99.90;;;;;;5035713;28;20170;-81
2022/03/14 11:46:21;;;;;;;11.75;4.13;;;14.70;99.90;;;;;;5056309;28;20190;-82
2022/03/14 11:48:47;;;;;;;12.77;4.25;;;15.00;99.90;;;;;;5038495;28;20201;-82
2022/03/14 11:51:14;;;;;;;10.38;4.60;;;15.00;99.90;;;;;;5069356;28;20167;-82
2022/03/14 11:53:50;;;;;;;8.85;4.45;;;15.00;99.90;;;;;;5034889;28;20183;-83
2022/03/14 11:56:18;;;;;;;12.82;4.43;;;14.90;99.90;;;;;;5051727;28;20194;-83
2022/03/14 11:59:08;;;;;;;10.82;4.82;;;14.80;99.90;;;;;;5070751;28;20210;-83
2022/03/14 12:01:35;;;;;;;12.27;4.07;;;14.40;99.90;;;;;;5050078;28;20221;-82
2022/03/14 12:04:10;;;;;;;9.07;4.57;;;14.40;99.90;;;;;;5050020;28;20540;-83
2022/03/14 12:06:57;;;;;;;10.88;4.03;;;14.40;99.90;;;;;;5050585;28;20194;-86
2022/03/14 12:09:26;;;;;;;9.30;5.38;;;14.30;99.90;;;;;;5046592;28;20254;-84
2022/03/14 12:11:51;;;;;;;10.00;5.78;;;14.20;99.90;;;;;;5062651;28;20179;-83
2022/03/14 12:14:54;;;;;;;8.57;5.93;;;14.30;99.90;;;;;;5045859;28;20167;-83
2022/03/14 12:17:22;;;;;;;8.35;5.00;;;14.30;99.90;;;;;;5045406;28;20588;-81
2022/03/14 12:19:48;;;;;;;9.13;4.68;;;14.30;99.90;;;;;;5046976;28;20168;-81
2022/03/14 12:22:45;;;;;;;11.18;4.13;;;14.50;99.90;;;;;;5047643;28;20249;-82
2022/03/14 12:25:35;;;;;;;9.45;4.80;;;14.70;99.90;;;;;;5063393;28;20190;-83
2022/03/14 12:28:34;;;;;;;9.18;4.60;;;14.90;99.90;;;;;;5072021;28;20183;-83
2022/03/14 12:31:03;;;;;;;10.23;4.28;;;15.20;99.90;;;;;;5005659;28;20229;-80
2022/03/14 12:33:49;;;;;;;8.00;4.47;;;15.20;99.90;;;;;;5066056;28;20197;-82
2022/03/14 12:36:22;;;;;;;16.25;4.78;;;15.30;99.90;;;;;;5034005;28;20289;-81
2022/03/14 12:39:27;;;;;;;5.95;3.90;;;15.40;99.90;;;;;;5065269;28;20173;-82
2022/03/14 12:42:23;;;;;;;9.40;3.00;;;15.40;99.90;;;;;;5065237;28;20215;-82
2022/03/14 12:45:14;;;;;;;18.65;3.88;;;15.40;99.90;;;;;;5045299;28;20198;-82
2022/03/14 12:47:48;;;;;;;7.18;3.15;;;15.40;99.90;;;;;;5037270;28;20178;-82
2022/03/14 12:50:42;;;;;;;11.15;3.63;;;15.20;99.90;;;;;;5056159;28;20163;-84